LAN2366 SPZO-SCEL
Flight info
| Callsign | LAN2366 |
|---|---|
| Flight time | 2h 59m |
| Altitude | 34000 |
| Route | ILMOX DCT OLGAS/N0462F350 DCT ARI DCT LOBAG UQ803 SIMOK SIMOK7B |
| Aircraft | A320/M-SDE3FGHIRWY/LB1 |
Departure
| Time | 2026-04-26 20:43 |
|---|---|
| Airport | Alejandro Velasco Astete International Airport (SPZO) |
Arrival
| Time | 2026-04-26 23:42 |
|---|---|
| Airport | Comodoro Arturo Merino Benítez International Airport (SCEL) |
| Time | Latitude | Longitude | Altitude | Speed | Heading |
|---|---|---|---|---|---|
| 2026-04-26 19:49 | -13.53740 | -71.94408 | 10817 ft | 0 kts | 146° |
| 2026-04-26 20:31 | -13.53731 | -71.94415 | 10817 ft | 4 kts | 146° |
| 2026-04-26 20:31 | -13.53708 | -71.94430 | 10817 ft | 4 kts | 146° |
| 2026-04-26 20:31 | -13.53685 | -71.94445 | 10817 ft | 4 kts | 146° |
| 2026-04-26 20:31 | -13.53676 | -71.94453 | 10817 ft | 4 kts | 165° |
| 2026-04-26 20:32 | -13.53691 | -71.94467 | 10817 ft | 4 kts | 227° |
| 2026-04-26 20:32 | -13.53712 | -71.94477 | 10817 ft | 4 kts | 183° |
| 2026-04-26 20:32 | -13.53736 | -71.94466 | 10817 ft | 4 kts | 147° |
| 2026-04-26 20:32 | -13.53747 | -71.94460 | 10817 ft | 4 kts | 185° |
| 2026-04-26 20:33 | -13.53783 | -71.94463 | 10817 ft | 3 kts | 5° |
| 2026-04-26 20:33 | -13.53785 | -71.94464 | 10817 ft | 0 kts | 5° |
| 2026-04-26 20:36 | -13.53767 | -71.94463 | 10817 ft | 6 kts | 359° |
| 2026-04-26 20:36 | -13.53725 | -71.94462 | 10817 ft | 6 kts | 6° |
| 2026-04-26 20:36 | -13.53685 | -71.94455 | 10817 ft | 7 kts | 10° |
| 2026-04-26 20:36 | -13.53656 | -71.94416 | 10817 ft | 8 kts | 85° |
| 2026-04-26 20:37 | -13.53662 | -71.94359 | 10817 ft | 9 kts | 96° |
| 2026-04-26 20:37 | -13.53669 | -71.94295 | 10817 ft | 9 kts | 96° |
| 2026-04-26 20:37 | -13.53676 | -71.94225 | 10817 ft | 10 kts | 95° |
| 2026-04-26 20:37 | -13.53657 | -71.94147 | 10813 ft | 14 kts | 65° |
| 2026-04-26 20:38 | -13.53613 | -71.94043 | 10809 ft | 18 kts | 65° |
| 2026-04-26 20:38 | -13.53572 | -71.93909 | 10803 ft | 22 kts | 90° |
| 2026-04-26 20:38 | -13.53587 | -71.93743 | 10798 ft | 25 kts | 96° |
| 2026-04-26 20:38 | -13.53607 | -71.93547 | 10783 ft | 31 kts | 96° |
| 2026-04-26 20:39 | -13.53630 | -71.93314 | 10766 ft | 35 kts | 96° |
| 2026-04-26 20:39 | -13.53648 | -71.93140 | 10756 ft | 37 kts | 96° |
| 2026-04-26 20:39 | -13.53678 | -71.92834 | 10741 ft | 31 kts | 96° |
| 2026-04-26 20:39 | -13.53698 | -71.92651 | 10728 ft | 18 kts | 96° |
| 2026-04-26 20:40 | -13.53727 | -71.92506 | 10720 ft | 20 kts | 99° |
| 2026-04-26 20:40 | -13.53742 | -71.92357 | 10710 ft | 18 kts | 96° |
| 2026-04-26 20:40 | -13.53745 | -71.92300 | 10705 ft | 11 kts | 79° |
| 2026-04-26 20:40 | -13.53727 | -71.92314 | 10706 ft | 5 kts | 237° |
| 2026-04-26 20:41 | -13.53730 | -71.92345 | 10709 ft | 0 kts | 277° |
| 2026-04-26 20:42 | -13.53726 | -71.92381 | 10711 ft | 25 kts | 276° |
| 2026-04-26 20:42 | -13.53682 | -71.92833 | 10741 ft | 99 kts | 276° |
| 2026-04-26 20:42 | -13.53588 | -71.93753 | 10800 ft | 157 kts | 275° |
| 2026-04-26 20:42 | -13.53463 | -71.94929 | 11438 ft | 163 kts | 277° |
| 2026-04-26 20:43 | -13.53324 | -71.96066 | 12058 ft | 161 kts | 274° |
| 2026-04-26 20:43 | -13.53372 | -71.97197 | 12544 ft | 156 kts | 254° |
| 2026-04-26 20:43 | -13.53880 | -71.98184 | 12861 ft | 163 kts | 222° |
| 2026-04-26 20:43 | -13.54933 | -71.98620 | 13157 ft | 171 kts | 177° |
| 2026-04-26 20:44 | -13.56081 | -71.98224 | 13387 ft | 184 kts | 149° |
| 2026-04-26 20:44 | -13.57117 | -71.97381 | 13563 ft | 197 kts | 136° |
| 2026-04-26 20:44 | -13.58089 | -71.96339 | 13680 ft | 212 kts | 134° |
| 2026-04-26 20:44 | -13.59125 | -71.95185 | 13812 ft | 227 kts | 133° |
| 2026-04-26 20:45 | -13.60232 | -71.93944 | 13915 ft | 246 kts | 133° |
| 2026-04-26 20:45 | -13.61444 | -71.92591 | 14048 ft | 269 kts | 133° |
| 2026-04-26 20:45 | -13.62772 | -71.91115 | 14202 ft | 292 kts | 133° |
| 2026-04-26 20:45 | -13.64203 | -71.89535 | 14426 ft | 311 kts | 133° |
| 2026-04-26 20:46 | -13.65720 | -71.87867 | 14767 ft | 325 kts | 134° |
| 2026-04-26 20:46 | -13.67292 | -71.86146 | 15147 ft | 336 kts | 134° |
| 2026-04-26 20:46 | -13.68913 | -71.84368 | 15525 ft | 345 kts | 133° |
| 2026-04-26 20:46 | -13.70593 | -71.82522 | 15676 ft | 362 kts | 133° |
| 2026-04-26 20:47 | -13.72350 | -71.80595 | 15805 ft | 377 kts | 133° |
| 2026-04-26 20:47 | -13.73574 | -71.79253 | 15983 ft | 383 kts | 133° |
| 2026-04-26 20:47 | -13.76008 | -71.76581 | 16523 ft | 389 kts | 133° |
| 2026-04-26 20:47 | -13.77863 | -71.74546 | 16999 ft | 390 kts | 133° |
| 2026-04-26 20:48 | -13.79723 | -71.72506 | 17499 ft | 391 kts | 133° |
| 2026-04-26 20:48 | -13.81583 | -71.70461 | 18000 ft | 391 kts | 133° |
| 2026-04-26 20:48 | -13.83438 | -71.68418 | 18499 ft | 391 kts | 133° |
| 2026-04-26 20:48 | -13.85307 | -71.66361 | 18756 ft | 397 kts | 133° |
| 2026-04-26 20:49 | -13.87210 | -71.64269 | 18927 ft | 405 kts | 133° |
| 2026-04-26 20:49 | -13.89144 | -71.62145 | 19206 ft | 408 kts | 133° |
| 2026-04-26 20:49 | -13.91094 | -71.59997 | 19498 ft | 411 kts | 133° |
| 2026-04-26 20:49 | -13.93049 | -71.57844 | 19786 ft | 413 kts | 133° |
| 2026-04-26 20:50 | -13.95015 | -71.55679 | 20065 ft | 415 kts | 133° |
| 2026-04-26 20:50 | -13.96993 | -71.53501 | 20329 ft | 417 kts | 133° |
| 2026-04-26 20:50 | -13.98980 | -71.51313 | 20578 ft | 419 kts | 133° |
| 2026-04-26 20:50 | -14.00949 | -71.49146 | 20811 ft | 421 kts | 133° |
| 2026-04-26 20:51 | -14.02978 | -71.46912 | 21035 ft | 423 kts | 133° |
| 2026-04-26 20:51 | -14.04964 | -71.44726 | 21247 ft | 424 kts | 133° |
| 2026-04-26 20:51 | -14.06988 | -71.42496 | 21459 ft | 426 kts | 133° |
| 2026-04-26 20:51 | -14.09013 | -71.40265 | 21658 ft | 427 kts | 133° |
| 2026-04-26 20:52 | -14.11053 | -71.38017 | 21846 ft | 429 kts | 133° |
| 2026-04-26 20:52 | -14.13091 | -71.35770 | 22026 ft | 430 kts | 133° |
| 2026-04-26 20:52 | -14.15139 | -71.33511 | 22204 ft | 431 kts | 133° |
| 2026-04-26 20:52 | -14.17192 | -71.31243 | 22369 ft | 433 kts | 133° |
| 2026-04-26 20:53 | -14.19249 | -71.28970 | 22531 ft | 434 kts | 133° |
| 2026-04-26 20:53 | -14.21310 | -71.26690 | 22689 ft | 435 kts | 133° |
| 2026-04-26 20:53 | -14.23375 | -71.24403 | 22840 ft | 437 kts | 133° |
| 2026-04-26 20:53 | -14.25446 | -71.22110 | 22986 ft | 438 kts | 133° |
| 2026-04-26 20:54 | -14.27525 | -71.19811 | 23124 ft | 439 kts | 133° |
| 2026-04-26 20:54 | -14.29609 | -71.17508 | 23260 ft | 440 kts | 133° |
| 2026-04-26 20:54 | -14.31699 | -71.15200 | 23388 ft | 441 kts | 133° |
| 2026-04-26 20:54 | -14.33791 | -71.12885 | 23515 ft | 442 kts | 133° |
| 2026-04-26 20:55 | -14.35887 | -71.10562 | 23642 ft | 443 kts | 133° |
| 2026-04-26 20:55 | -14.37989 | -71.08234 | 23768 ft | 444 kts | 133° |
| 2026-04-26 20:55 | -14.40098 | -71.05900 | 23893 ft | 445 kts | 133° |
| 2026-04-26 20:55 | -14.42210 | -71.03563 | 24019 ft | 445 kts | 133° |
| 2026-04-26 20:56 | -14.44324 | -71.01222 | 24144 ft | 446 kts | 133° |
| 2026-04-26 20:56 | -14.46440 | -70.98878 | 24269 ft | 447 kts | 133° |
| 2026-04-26 20:56 | -14.48558 | -70.96531 | 24394 ft | 447 kts | 133° |
| 2026-04-26 20:56 | -14.50675 | -70.94181 | 24518 ft | 447 kts | 133° |
| 2026-04-26 20:57 | -14.52793 | -70.91827 | 24643 ft | 447 kts | 133° |
| 2026-04-26 20:57 | -14.54886 | -70.89504 | 24766 ft | 447 kts | 134° |
| 2026-04-26 20:57 | -14.57248 | -70.87368 | 24891 ft | 446 kts | 145° |
| 2026-04-26 20:57 | -14.59888 | -70.85766 | 25015 ft | 445 kts | 155° |
| 2026-04-26 20:58 | -14.62836 | -70.84680 | 25141 ft | 444 kts | 166° |
| 2026-04-26 20:58 | -14.65885 | -70.84184 | 25266 ft | 443 kts | 177° |
| 2026-04-26 20:58 | -14.68932 | -70.84064 | 25391 ft | 443 kts | 178° |
| 2026-04-26 20:58 | -14.72008 | -70.83945 | 25516 ft | 442 kts | 178° |
| 2026-04-26 20:59 | -14.75082 | -70.83820 | 25641 ft | 442 kts | 178° |
| 2026-04-26 20:59 | -14.78152 | -70.83694 | 25765 ft | 441 kts | 178° |
| 2026-04-26 20:59 | -14.81225 | -70.83567 | 25890 ft | 441 kts | 178° |
| 2026-04-26 20:59 | -14.84289 | -70.83439 | 26015 ft | 440 kts | 178° |
| 2026-04-26 21:00 | -14.87345 | -70.83308 | 26140 ft | 440 kts | 178° |
| 2026-04-26 21:00 | -14.90402 | -70.83180 | 26265 ft | 439 kts | 178° |
| 2026-04-26 21:00 | -14.93458 | -70.83056 | 26390 ft | 439 kts | 178° |
| 2026-04-26 21:00 | -14.96505 | -70.82933 | 26514 ft | 438 kts | 178° |
| 2026-04-26 21:01 | -14.99562 | -70.82810 | 26640 ft | 438 kts | 178° |
| 2026-04-26 21:01 | -15.02604 | -70.82687 | 26765 ft | 437 kts | 178° |
| 2026-04-26 21:01 | -15.05641 | -70.82564 | 26890 ft | 437 kts | 178° |
| 2026-04-26 21:01 | -15.08684 | -70.82439 | 27015 ft | 437 kts | 178° |
| 2026-04-26 21:02 | -15.11715 | -70.82316 | 27140 ft | 436 kts | 178° |
| 2026-04-26 21:02 | -15.14706 | -70.82197 | 27263 ft | 436 kts | 178° |
| 2026-04-26 21:02 | -15.17736 | -70.82075 | 27389 ft | 435 kts | 178° |
| 2026-04-26 21:02 | -15.20757 | -70.81950 | 27514 ft | 435 kts | 178° |
| 2026-04-26 21:03 | -15.23777 | -70.81823 | 27639 ft | 434 kts | 178° |
| 2026-04-26 21:03 | -15.26798 | -70.81695 | 27764 ft | 434 kts | 178° |
| 2026-04-26 21:03 | -15.29812 | -70.81568 | 27889 ft | 434 kts | 178° |
| 2026-04-26 21:03 | -15.32826 | -70.81445 | 28013 ft | 433 kts | 178° |
| 2026-04-26 21:04 | -15.35835 | -70.81326 | 28138 ft | 433 kts | 178° |
| 2026-04-26 21:04 | -15.38844 | -70.81206 | 28264 ft | 433 kts | 178° |
| 2026-04-26 21:04 | -15.41851 | -70.81086 | 28388 ft | 432 kts | 178° |
| 2026-04-26 21:04 | -15.44858 | -70.80966 | 28514 ft | 432 kts | 178° |
| 2026-04-26 21:05 | -15.47859 | -70.80845 | 28639 ft | 431 kts | 178° |
| 2026-04-26 21:05 | -15.50856 | -70.80723 | 28764 ft | 431 kts | 178° |
| 2026-04-26 21:05 | -15.53850 | -70.80601 | 28889 ft | 430 kts | 178° |
| 2026-04-26 21:05 | -15.56841 | -70.80478 | 29014 ft | 430 kts | 178° |
| 2026-04-26 21:06 | -15.59829 | -70.80354 | 29139 ft | 429 kts | 178° |
| 2026-04-26 21:06 | -15.62814 | -70.80226 | 29264 ft | 429 kts | 178° |
| 2026-04-26 21:06 | -15.65793 | -70.80099 | 29389 ft | 429 kts | 178° |
| 2026-04-26 21:06 | -15.68773 | -70.79978 | 29514 ft | 428 kts | 178° |
| 2026-04-26 21:07 | -15.71751 | -70.79859 | 29639 ft | 428 kts | 178° |
| 2026-04-26 21:07 | -15.74725 | -70.79740 | 29764 ft | 427 kts | 178° |
| 2026-04-26 21:07 | -15.77696 | -70.79622 | 29889 ft | 427 kts | 178° |
| 2026-04-26 21:07 | -15.80666 | -70.79503 | 30014 ft | 427 kts | 178° |
| 2026-04-26 21:08 | -15.83629 | -70.79382 | 30139 ft | 426 kts | 178° |
| 2026-04-26 21:08 | -15.86595 | -70.79263 | 30264 ft | 426 kts | 178° |
| 2026-04-26 21:08 | -15.89555 | -70.79143 | 30389 ft | 425 kts | 178° |
| 2026-04-26 21:08 | -15.92518 | -70.79022 | 30514 ft | 425 kts | 178° |
| 2026-04-26 21:09 | -15.95473 | -70.78898 | 30639 ft | 424 kts | 178° |
| 2026-04-26 21:09 | -15.98418 | -70.78774 | 30764 ft | 424 kts | 178° |
| 2026-04-26 21:09 | -16.01364 | -70.78652 | 30889 ft | 423 kts | 178° |
| 2026-04-26 21:09 | -16.04300 | -70.78529 | 31014 ft | 423 kts | 178° |
| 2026-04-26 21:10 | -16.07239 | -70.78407 | 31139 ft | 422 kts | 178° |
| 2026-04-26 21:10 | -16.10177 | -70.78285 | 31264 ft | 422 kts | 178° |
| 2026-04-26 21:10 | -16.13111 | -70.78165 | 31390 ft | 421 kts | 178° |
| 2026-04-26 21:10 | -16.16041 | -70.78046 | 31515 ft | 421 kts | 178° |
| 2026-04-26 21:11 | -16.18966 | -70.77924 | 31639 ft | 420 kts | 178° |
| 2026-04-26 21:11 | -16.21892 | -70.77803 | 31765 ft | 420 kts | 178° |
| 2026-04-26 21:11 | -16.24772 | -70.77684 | 31888 ft | 420 kts | 178° |
| 2026-04-26 21:11 | -16.27691 | -70.77565 | 32013 ft | 419 kts | 178° |
| 2026-04-26 21:12 | -16.30603 | -70.77444 | 32138 ft | 419 kts | 178° |
| 2026-04-26 21:12 | -16.33510 | -70.77321 | 32263 ft | 418 kts | 178° |
| 2026-04-26 21:12 | -16.36419 | -70.77195 | 32388 ft | 418 kts | 178° |
| 2026-04-26 21:12 | -16.39308 | -70.76928 | 32513 ft | 417 kts | 171° |
| 2026-04-26 21:13 | -16.42153 | -70.76350 | 32638 ft | 417 kts | 169° |
| 2026-04-26 21:13 | -16.44995 | -70.75747 | 32763 ft | 416 kts | 169° |
| 2026-04-26 21:13 | -16.47834 | -70.75144 | 32888 ft | 415 kts | 169° |
| 2026-04-26 21:13 | -16.50665 | -70.74544 | 33013 ft | 415 kts | 169° |
| 2026-04-26 21:14 | -16.53491 | -70.73950 | 33138 ft | 414 kts | 169° |
| 2026-04-26 21:14 | -16.56309 | -70.73356 | 33263 ft | 413 kts | 169° |
| 2026-04-26 21:14 | -16.59125 | -70.72761 | 33388 ft | 413 kts | 169° |
| 2026-04-26 21:14 | -16.61937 | -70.72165 | 33513 ft | 412 kts | 169° |
| 2026-04-26 21:15 | -16.64744 | -70.71571 | 33638 ft | 411 kts | 169° |
| 2026-04-26 21:15 | -16.67552 | -70.70973 | 33763 ft | 411 kts | 168° |
| 2026-04-26 21:15 | -16.70350 | -70.70375 | 33888 ft | 410 kts | 169° |
| 2026-04-26 21:15 | -16.73141 | -70.69782 | 34012 ft | 409 kts | 169° |
| 2026-04-26 21:16 | -16.75930 | -70.69189 | 34137 ft | 408 kts | 169° |
| 2026-04-26 21:16 | -16.78695 | -70.68601 | 34262 ft | 408 kts | 169° |
| 2026-04-26 21:16 | -16.81481 | -70.68005 | 34388 ft | 410 kts | 168° |
| 2026-04-26 21:16 | -16.84261 | -70.67414 | 34505 ft | 415 kts | 169° |
| 2026-04-26 21:17 | -16.87102 | -70.66812 | 34630 ft | 418 kts | 169° |
| 2026-04-26 21:17 | -16.89965 | -70.66204 | 34755 ft | 421 kts | 169° |
| 2026-04-26 21:17 | -16.92844 | -70.65592 | 34902 ft | 422 kts | 168° |
| 2026-04-26 21:18 | -16.98633 | -70.64354 | 35014 ft | 430 kts | 168° |
| 2026-04-26 21:18 | -17.04591 | -70.63075 | 35010 ft | 441 kts | 168° |
| 2026-04-26 21:19 | -17.10678 | -70.61772 | 35011 ft | 452 kts | 168° |
| 2026-04-26 21:19 | -17.16872 | -70.60452 | 35010 ft | 462 kts | 169° |
| 2026-04-26 21:20 | -17.23235 | -70.59098 | 35008 ft | 471 kts | 168° |
| 2026-04-26 21:20 | -17.29663 | -70.57723 | 35014 ft | 471 kts | 168° |
| 2026-04-26 21:21 | -17.36063 | -70.56355 | 35012 ft | 467 kts | 168° |
| 2026-04-26 21:21 | -17.42407 | -70.55001 | 35006 ft | 463 kts | 168° |
| 2026-04-26 21:22 | -17.48693 | -70.53650 | 35016 ft | 460 kts | 168° |
| 2026-04-26 21:22 | -17.54961 | -70.52303 | 35019 ft | 459 kts | 168° |
| 2026-04-26 21:23 | -17.63299 | -70.50517 | 35014 ft | 459 kts | 168° |
| 2026-04-26 21:23 | -17.70552 | -70.48959 | 35009 ft | 457 kts | 168° |
| 2026-04-26 21:24 | -17.75716 | -70.47848 | 35008 ft | 455 kts | 168° |
| 2026-04-26 21:24 | -17.81909 | -70.46520 | 35005 ft | 453 kts | 168° |
| 2026-04-26 21:25 | -17.88079 | -70.45190 | 35005 ft | 452 kts | 168° |
| 2026-04-26 21:25 | -17.94242 | -70.43854 | 35007 ft | 452 kts | 168° |
| 2026-04-26 21:26 | -18.00408 | -70.42523 | 35007 ft | 452 kts | 168° |
| 2026-04-26 21:26 | -18.06571 | -70.41200 | 35011 ft | 452 kts | 168° |
| 2026-04-26 21:27 | -18.12724 | -70.39869 | 35023 ft | 451 kts | 168° |
| 2026-04-26 21:27 | -18.18837 | -70.38547 | 35018 ft | 451 kts | 168° |
| 2026-04-26 21:28 | -18.24978 | -70.37225 | 35021 ft | 450 kts | 168° |
| 2026-04-26 21:28 | -18.31115 | -70.35900 | 35017 ft | 450 kts | 168° |
| 2026-04-26 21:29 | -18.37242 | -70.34585 | 35015 ft | 449 kts | 169° |
| 2026-04-26 21:29 | -18.43429 | -70.33632 | 35016 ft | 449 kts | 174° |
| 2026-04-26 21:30 | -18.49651 | -70.32968 | 35013 ft | 449 kts | 174° |
| 2026-04-26 21:30 | -18.55827 | -70.32286 | 35008 ft | 449 kts | 174° |
| 2026-04-26 21:31 | -18.62033 | -70.31509 | 34990 ft | 450 kts | 173° |
| 2026-04-26 21:31 | -18.68255 | -70.30701 | 34984 ft | 451 kts | 173° |
| 2026-04-26 21:32 | -18.74498 | -70.29903 | 34990 ft | 452 kts | 173° |
| 2026-04-26 21:32 | -18.80746 | -70.29113 | 35004 ft | 452 kts | 173° |
| 2026-04-26 21:33 | -18.86999 | -70.28327 | 35002 ft | 452 kts | 173° |
| 2026-04-26 21:33 | -18.93220 | -70.27543 | 34987 ft | 453 kts | 173° |
| 2026-04-26 21:34 | -18.99491 | -70.26749 | 34995 ft | 454 kts | 173° |
| 2026-04-26 21:34 | -19.05767 | -70.25951 | 34995 ft | 454 kts | 173° |
| 2026-04-26 21:35 | -19.12055 | -70.25154 | 35000 ft | 455 kts | 173° |
| 2026-04-26 21:35 | -19.18342 | -70.24357 | 35015 ft | 454 kts | 173° |
| 2026-04-26 21:36 | -19.24613 | -70.23566 | 35020 ft | 453 kts | 173° |
| 2026-04-26 21:36 | -19.30887 | -70.22773 | 35008 ft | 454 kts | 173° |
| 2026-04-26 21:37 | -19.37112 | -70.21981 | 35003 ft | 454 kts | 173° |
| 2026-04-26 21:37 | -19.43391 | -70.21251 | 35015 ft | 453 kts | 179° |
| 2026-04-26 21:38 | -19.49685 | -70.21271 | 35025 ft | 452 kts | 180° |
| 2026-04-26 21:38 | -19.55958 | -70.21298 | 35029 ft | 450 kts | 180° |
| 2026-04-26 21:39 | -19.62224 | -70.21317 | 35025 ft | 449 kts | 180° |
| 2026-04-26 21:39 | -19.68477 | -70.21335 | 35023 ft | 449 kts | 180° |
| 2026-04-26 21:40 | -19.74720 | -70.21359 | 35019 ft | 448 kts | 180° |
| 2026-04-26 21:40 | -19.80962 | -70.21387 | 35019 ft | 448 kts | 180° |
| 2026-04-26 21:41 | -19.87193 | -70.21404 | 35017 ft | 448 kts | 180° |
| 2026-04-26 21:41 | -19.93389 | -70.21422 | 35010 ft | 448 kts | 180° |
| 2026-04-26 21:42 | -19.99629 | -70.21449 | 35009 ft | 448 kts | 180° |
| 2026-04-26 21:42 | -20.05871 | -70.21476 | 35009 ft | 448 kts | 180° |
| 2026-04-26 21:43 | -20.12120 | -70.21496 | 35009 ft | 448 kts | 180° |
| 2026-04-26 21:43 | -20.18340 | -70.21513 | 35006 ft | 448 kts | 180° |
| 2026-04-26 21:44 | -20.24537 | -70.21532 | 35003 ft | 448 kts | 180° |
| 2026-04-26 21:44 | -20.30772 | -70.21552 | 35006 ft | 448 kts | 180° |
| 2026-04-26 21:45 | -20.37003 | -70.21572 | 35009 ft | 448 kts | 180° |
| 2026-04-26 21:45 | -20.43233 | -70.21600 | 35010 ft | 448 kts | 180° |
| 2026-04-26 21:46 | -20.49464 | -70.21624 | 35004 ft | 448 kts | 180° |
| 2026-04-26 21:46 | -20.55694 | -70.21648 | 35010 ft | 448 kts | 180° |
| 2026-04-26 21:47 | -20.61890 | -70.21665 | 35005 ft | 448 kts | 180° |
| 2026-04-26 21:47 | -20.68134 | -70.21679 | 35001 ft | 448 kts | 180° |
| 2026-04-26 21:48 | -20.74363 | -70.21710 | 35005 ft | 448 kts | 180° |
| 2026-04-26 21:48 | -20.80593 | -70.21741 | 35008 ft | 448 kts | 180° |
| 2026-04-26 21:49 | -20.86822 | -70.21761 | 35002 ft | 448 kts | 180° |
| 2026-04-26 21:49 | -20.93051 | -70.21779 | 35010 ft | 448 kts | 180° |
| 2026-04-26 21:50 | -20.98237 | -70.21797 | 35009 ft | 448 kts | 180° |
| 2026-04-26 21:50 | -21.05515 | -70.21828 | 35003 ft | 448 kts | 180° |
| 2026-04-26 21:51 | -21.11702 | -70.21854 | 35004 ft | 448 kts | 180° |
| 2026-04-26 21:51 | -21.17930 | -70.21872 | 35004 ft | 447 kts | 180° |
| 2026-04-26 21:52 | -21.24158 | -70.21891 | 35009 ft | 447 kts | 180° |
| 2026-04-26 21:52 | -21.30393 | -70.21910 | 35003 ft | 447 kts | 180° |
| 2026-04-26 21:53 | -21.36621 | -70.21929 | 35004 ft | 447 kts | 180° |
| 2026-04-26 21:53 | -21.42848 | -70.21956 | 35003 ft | 447 kts | 180° |
| 2026-04-26 21:54 | -21.49082 | -70.21981 | 35006 ft | 447 kts | 180° |
| 2026-04-26 21:54 | -21.55309 | -70.21995 | 35005 ft | 447 kts | 180° |
| 2026-04-26 21:55 | -21.61494 | -70.22009 | 35007 ft | 447 kts | 180° |
| 2026-04-26 21:55 | -21.67734 | -70.22032 | 35008 ft | 447 kts | 180° |
| 2026-04-26 21:56 | -21.73961 | -70.22057 | 35003 ft | 447 kts | 180° |
| 2026-04-26 21:56 | -21.80194 | -70.22080 | 35011 ft | 447 kts | 180° |
| 2026-04-26 21:57 | -21.86420 | -70.22093 | 35004 ft | 447 kts | 180° |
| 2026-04-26 21:57 | -21.92576 | -70.22615 | 35003 ft | 447 kts | 189° |
| 2026-04-26 21:58 | -21.98727 | -70.23605 | 35003 ft | 447 kts | 188° |
| 2026-04-26 21:58 | -22.04882 | -70.24573 | 35009 ft | 447 kts | 188° |
| 2026-04-26 21:59 | -22.11045 | -70.25534 | 35000 ft | 447 kts | 188° |
| 2026-04-26 21:59 | -22.17209 | -70.26491 | 35006 ft | 447 kts | 188° |
| 2026-04-26 22:00 | -22.23371 | -70.27456 | 35006 ft | 447 kts | 188° |
| 2026-04-26 22:00 | -22.29485 | -70.28421 | 35004 ft | 447 kts | 188° |
| 2026-04-26 22:01 | -22.35639 | -70.29397 | 35006 ft | 447 kts | 188° |
| 2026-04-26 22:01 | -22.41794 | -70.30370 | 35005 ft | 447 kts | 188° |
| 2026-04-26 22:02 | -22.46911 | -70.31180 | 35006 ft | 447 kts | 188° |
| 2026-04-26 22:02 | -22.54117 | -70.32311 | 35012 ft | 447 kts | 188° |
| 2026-04-26 22:03 | -22.60278 | -70.33282 | 35007 ft | 447 kts | 188° |
| 2026-04-26 22:03 | -22.66391 | -70.34250 | 35009 ft | 447 kts | 188° |
| 2026-04-26 22:04 | -22.72547 | -70.35231 | 35010 ft | 447 kts | 188° |
| 2026-04-26 22:04 | -22.78713 | -70.36216 | 35002 ft | 447 kts | 188° |
| 2026-04-26 22:05 | -22.84866 | -70.37193 | 35011 ft | 447 kts | 188° |
| 2026-04-26 22:05 | -22.91021 | -70.37797 | 35001 ft | 447 kts | 180° |
| 2026-04-26 22:06 | -22.97242 | -70.37837 | 35009 ft | 447 kts | 180° |
| 2026-04-26 22:06 | -23.03468 | -70.37886 | 35006 ft | 447 kts | 180° |
| 2026-04-26 22:07 | -23.09688 | -70.37935 | 35006 ft | 447 kts | 180° |
| 2026-04-26 22:07 | -23.14864 | -70.37969 | 35008 ft | 447 kts | 180° |
| 2026-04-26 22:08 | -23.22139 | -70.38023 | 35000 ft | 447 kts | 181° |
| 2026-04-26 22:08 | -23.28368 | -70.38076 | 35005 ft | 448 kts | 180° |
| 2026-04-26 22:09 | -23.34562 | -70.38123 | 34999 ft | 448 kts | 180° |
| 2026-04-26 22:09 | -23.40809 | -70.38175 | 34999 ft | 449 kts | 180° |
| 2026-04-26 22:10 | -23.47055 | -70.38219 | 34997 ft | 449 kts | 180° |
| 2026-04-26 22:10 | -23.53306 | -70.38267 | 35005 ft | 449 kts | 180° |
| 2026-04-26 22:11 | -23.59562 | -70.38314 | 35009 ft | 449 kts | 180° |
| 2026-04-26 22:11 | -23.65777 | -70.38362 | 35013 ft | 448 kts | 180° |
| 2026-04-26 22:12 | -23.72017 | -70.38409 | 35004 ft | 449 kts | 180° |
| 2026-04-26 22:12 | -23.78266 | -70.38460 | 34996 ft | 449 kts | 180° |
| 2026-04-26 22:13 | -23.84515 | -70.38402 | 34994 ft | 450 kts | 179° |
| 2026-04-26 22:13 | -23.90786 | -70.38151 | 34986 ft | 450 kts | 178° |
| 2026-04-26 22:14 | -23.95995 | -70.37923 | 35002 ft | 451 kts | 178° |
| 2026-04-26 22:14 | -24.03300 | -70.37668 | 34996 ft | 452 kts | 179° |
| 2026-04-26 22:15 | -24.08568 | -70.37502 | 34986 ft | 452 kts | 178° |
| 2026-04-26 22:15 | -24.15896 | -70.37263 | 34986 ft | 454 kts | 178° |
| 2026-04-26 22:16 | -24.21192 | -70.37086 | 34985 ft | 455 kts | 178° |
| 2026-04-26 22:16 | -24.27505 | -70.36878 | 34990 ft | 456 kts | 178° |
| 2026-04-26 22:17 | -24.33887 | -70.36669 | 35011 ft | 460 kts | 178° |
| 2026-04-26 22:17 | -24.40267 | -70.36449 | 35008 ft | 461 kts | 178° |
| 2026-04-26 22:18 | -24.46683 | -70.36228 | 35007 ft | 461 kts | 178° |
| 2026-04-26 22:18 | -24.53102 | -70.36013 | 35010 ft | 463 kts | 178° |
| 2026-04-26 22:19 | -24.59543 | -70.35806 | 35013 ft | 463 kts | 178° |
| 2026-04-26 22:19 | -24.65979 | -70.35589 | 35019 ft | 462 kts | 178° |
| 2026-04-26 22:20 | -24.72408 | -70.35370 | 35022 ft | 462 kts | 178° |
| 2026-04-26 22:20 | -24.78790 | -70.35164 | 35002 ft | 463 kts | 178° |
| 2026-04-26 22:21 | -24.85201 | -70.34951 | 35009 ft | 460 kts | 178° |
| 2026-04-26 22:21 | -24.91557 | -70.34733 | 35008 ft | 459 kts | 178° |
| 2026-04-26 22:22 | -24.97938 | -70.34519 | 35011 ft | 459 kts | 179° |
| 2026-04-26 22:22 | -25.04327 | -70.34316 | 35008 ft | 458 kts | 178° |
| 2026-04-26 22:23 | -25.10695 | -70.34108 | 35005 ft | 457 kts | 178° |
| 2026-04-26 22:23 | -25.17055 | -70.33894 | 35008 ft | 457 kts | 178° |
| 2026-04-26 22:24 | -25.23375 | -70.33671 | 35015 ft | 457 kts | 178° |
| 2026-04-26 22:24 | -25.29728 | -70.33457 | 35022 ft | 456 kts | 178° |
| 2026-04-26 22:25 | -25.36071 | -70.33251 | 35022 ft | 455 kts | 178° |
| 2026-04-26 22:25 | -25.42404 | -70.33033 | 35021 ft | 455 kts | 178° |
| 2026-04-26 22:26 | -25.48732 | -70.32818 | 35022 ft | 454 kts | 178° |
| 2026-04-26 22:26 | -25.55058 | -70.32610 | 35021 ft | 454 kts | 178° |
| 2026-04-26 22:27 | -25.61371 | -70.32389 | 35017 ft | 454 kts | 178° |
| 2026-04-26 22:27 | -25.67683 | -70.32172 | 35019 ft | 453 kts | 178° |
| 2026-04-26 22:28 | -25.73994 | -70.31964 | 35018 ft | 453 kts | 178° |
| 2026-04-26 22:28 | -25.80253 | -70.31758 | 35018 ft | 453 kts | 178° |
| 2026-04-26 22:29 | -25.86560 | -70.31538 | 35018 ft | 453 kts | 178° |
| 2026-04-26 22:29 | -25.92860 | -70.31326 | 35014 ft | 452 kts | 178° |
| 2026-04-26 22:30 | -25.99160 | -70.31111 | 35017 ft | 452 kts | 178° |
| 2026-04-26 22:30 | -26.05410 | -70.30886 | 35017 ft | 452 kts | 178° |
| 2026-04-26 22:31 | -26.11690 | -70.31268 | 35008 ft | 452 kts | 185° |
| 2026-04-26 22:31 | -26.17961 | -70.31848 | 35005 ft | 452 kts | 185° |
| 2026-04-26 22:32 | -26.24231 | -70.32423 | 35003 ft | 452 kts | 185° |
| 2026-04-26 22:32 | -26.30512 | -70.32999 | 35010 ft | 452 kts | 185° |
| 2026-04-26 22:33 | -26.39916 | -70.33869 | 35013 ft | 452 kts | 185° |
| 2026-04-26 22:34 | -26.46176 | -70.34444 | 35016 ft | 451 kts | 185° |
| 2026-04-26 22:34 | -26.52399 | -70.35023 | 35012 ft | 451 kts | 185° |
| 2026-04-26 22:35 | -26.58660 | -70.35601 | 35009 ft | 451 kts | 185° |
| 2026-04-26 22:35 | -26.64927 | -70.36174 | 34997 ft | 452 kts | 185° |
| 2026-04-26 22:36 | -26.71214 | -70.36758 | 34999 ft | 452 kts | 185° |
| 2026-04-26 22:36 | -26.77456 | -70.37343 | 34999 ft | 453 kts | 185° |
| 2026-04-26 22:37 | -26.83738 | -70.37925 | 34995 ft | 453 kts | 185° |
| 2026-04-26 22:37 | -26.90033 | -70.38505 | 35005 ft | 454 kts | 185° |
| 2026-04-26 22:38 | -26.96329 | -70.39089 | 35010 ft | 453 kts | 185° |
| 2026-04-26 22:38 | -27.02584 | -70.39674 | 35007 ft | 453 kts | 185° |
| 2026-04-26 22:39 | -27.08874 | -70.40259 | 35008 ft | 454 kts | 185° |
| 2026-04-26 22:39 | -27.15165 | -70.40841 | 35011 ft | 453 kts | 185° |
| 2026-04-26 22:40 | -27.21459 | -70.41432 | 35011 ft | 453 kts | 185° |
| 2026-04-26 22:40 | -27.27746 | -70.42024 | 35024 ft | 452 kts | 185° |
| 2026-04-26 22:41 | -27.34016 | -70.42610 | 35027 ft | 451 kts | 185° |
| 2026-04-26 22:41 | -27.40233 | -70.43192 | 35025 ft | 451 kts | 185° |
| 2026-04-26 22:42 | -27.46489 | -70.43779 | 35020 ft | 450 kts | 185° |
| 2026-04-26 22:42 | -27.52734 | -70.44366 | 35018 ft | 450 kts | 185° |
| 2026-04-26 22:43 | -27.58954 | -70.44956 | 35017 ft | 450 kts | 185° |
| 2026-04-26 22:43 | -27.65202 | -70.45545 | 35013 ft | 450 kts | 185° |
| 2026-04-26 22:44 | -27.71452 | -70.46132 | 35007 ft | 451 kts | 185° |
| 2026-04-26 22:44 | -27.77705 | -70.46723 | 35009 ft | 451 kts | 185° |
| 2026-04-26 22:45 | -27.83959 | -70.47317 | 35005 ft | 451 kts | 185° |
| 2026-04-26 22:45 | -27.90214 | -70.47910 | 35009 ft | 451 kts | 185° |
| 2026-04-26 22:46 | -27.96427 | -70.48497 | 35009 ft | 451 kts | 185° |
| 2026-04-26 22:46 | -28.02685 | -70.49088 | 35010 ft | 450 kts | 185° |
| 2026-04-26 22:47 | -28.08937 | -70.49685 | 35008 ft | 451 kts | 185° |
| 2026-04-26 22:47 | -28.15190 | -70.50285 | 35007 ft | 451 kts | 185° |
| 2026-04-26 22:48 | -28.21450 | -70.50880 | 35004 ft | 451 kts | 185° |
| 2026-04-26 22:48 | -28.27710 | -70.51471 | 35007 ft | 451 kts | 185° |
| 2026-04-26 22:49 | -28.33933 | -70.52063 | 35005 ft | 451 kts | 185° |
| 2026-04-26 22:49 | -28.40199 | -70.52663 | 34991 ft | 452 kts | 185° |
| 2026-04-26 22:50 | -28.46474 | -70.53267 | 34982 ft | 453 kts | 185° |
| 2026-04-26 22:50 | -28.52781 | -70.53872 | 34984 ft | 455 kts | 185° |
| 2026-04-26 22:51 | -28.59106 | -70.54464 | 35003 ft | 456 kts | 185° |
| 2026-04-26 22:51 | -28.65427 | -70.55067 | 35003 ft | 456 kts | 185° |
| 2026-04-26 22:52 | -28.71711 | -70.55656 | 35018 ft | 455 kts | 185° |
| 2026-04-26 22:52 | -28.78062 | -70.56242 | 35012 ft | 455 kts | 185° |
| 2026-04-26 22:53 | -28.84335 | -70.56836 | 34986 ft | 456 kts | 185° |
| 2026-04-26 22:53 | -28.90674 | -70.57439 | 34983 ft | 458 kts | 185° |
| 2026-04-26 22:54 | -28.97031 | -70.58041 | 34997 ft | 459 kts | 185° |
| 2026-04-26 22:54 | -29.03393 | -70.58654 | 34993 ft | 459 kts | 185° |
| 2026-04-26 22:55 | -29.09767 | -70.59272 | 34994 ft | 460 kts | 185° |
| 2026-04-26 22:55 | -29.16154 | -70.59888 | 35000 ft | 460 kts | 185° |
| 2026-04-26 22:56 | -29.22537 | -70.60514 | 35003 ft | 461 kts | 185° |
| 2026-04-26 22:56 | -29.28887 | -70.61124 | 34998 ft | 461 kts | 185° |
| 2026-04-26 22:57 | -29.35290 | -70.61744 | 35007 ft | 461 kts | 185° |
| 2026-04-26 22:57 | -29.41685 | -70.62365 | 35005 ft | 461 kts | 185° |
| 2026-04-26 22:58 | -29.48096 | -70.62996 | 35014 ft | 461 kts | 185° |
| 2026-04-26 22:58 | -29.54490 | -70.63621 | 35012 ft | 461 kts | 185° |
| 2026-04-26 22:59 | -29.60847 | -70.64240 | 35012 ft | 461 kts | 185° |
| 2026-04-26 22:59 | -29.67241 | -70.64868 | 35011 ft | 461 kts | 185° |
| 2026-04-26 23:00 | -29.73635 | -70.65495 | 35013 ft | 461 kts | 185° |
| 2026-04-26 23:00 | -29.80031 | -70.66119 | 35011 ft | 461 kts | 185° |
| 2026-04-26 23:01 | -29.86434 | -70.66745 | 35008 ft | 462 kts | 185° |
| 2026-04-26 23:01 | -29.92835 | -70.67380 | 35011 ft | 462 kts | 185° |
| 2026-04-26 23:02 | -29.98155 | -70.67908 | 35027 ft | 461 kts | 185° |
| 2026-04-26 23:02 | -30.04530 | -70.68532 | 35042 ft | 458 kts | 185° |
| 2026-04-26 23:03 | -30.11899 | -70.69262 | 35034 ft | 456 kts | 185° |
| 2026-04-26 23:03 | -30.17188 | -70.69785 | 35027 ft | 455 kts | 185° |
| 2026-04-26 23:04 | -30.23505 | -70.70408 | 34995 ft | 456 kts | 185° |
| 2026-04-26 23:04 | -30.29834 | -70.71027 | 35009 ft | 457 kts | 185° |
| 2026-04-26 23:05 | -30.36171 | -70.71651 | 35016 ft | 456 kts | 185° |
| 2026-04-26 23:05 | -30.42499 | -70.72288 | 35015 ft | 456 kts | 185° |
| 2026-04-26 23:06 | -30.48787 | -70.72915 | 35012 ft | 456 kts | 185° |
| 2026-04-26 23:06 | -30.55129 | -70.73535 | 34996 ft | 458 kts | 185° |
| 2026-04-26 23:07 | -30.61480 | -70.74160 | 34997 ft | 458 kts | 185° |
| 2026-04-26 23:07 | -30.67841 | -70.74771 | 34984 ft | 459 kts | 185° |
| 2026-04-26 23:08 | -30.74210 | -70.75384 | 35020 ft | 459 kts | 185° |
| 2026-04-26 23:08 | -30.80559 | -70.76002 | 35030 ft | 457 kts | 185° |
| 2026-04-26 23:09 | -30.86891 | -70.76618 | 35036 ft | 456 kts | 185° |
| 2026-04-26 23:09 | -30.93202 | -70.77233 | 35034 ft | 454 kts | 185° |
| 2026-04-26 23:10 | -30.99497 | -70.77845 | 35026 ft | 454 kts | 185° |
| 2026-04-26 23:10 | -31.05793 | -70.78463 | 34999 ft | 454 kts | 185° |
| 2026-04-26 23:11 | -31.12078 | -70.79090 | 34983 ft | 456 kts | 185° |
| 2026-04-26 23:11 | -31.18418 | -70.79722 | 34992 ft | 457 kts | 185° |
| 2026-04-26 23:12 | -31.24771 | -70.80351 | 34984 ft | 458 kts | 185° |
| 2026-04-26 23:12 | -31.31144 | -70.80964 | 34981 ft | 460 kts | 185° |
| 2026-04-26 23:13 | -31.37545 | -70.81589 | 34978 ft | 463 kts | 185° |
| 2026-04-26 23:13 | -31.43977 | -70.82222 | 34983 ft | 465 kts | 185° |
| 2026-04-26 23:14 | -31.50427 | -70.82866 | 35015 ft | 465 kts | 185° |
| 2026-04-26 23:14 | -31.56847 | -70.83505 | 35006 ft | 458 kts | 185° |
| 2026-04-26 23:15 | -31.63151 | -70.84130 | 35008 ft | 459 kts | 185° |
| 2026-04-26 23:15 | -31.69525 | -70.84765 | 35011 ft | 458 kts | 185° |
| 2026-04-26 23:16 | -31.75848 | -70.85301 | 35010 ft | 454 kts | 179° |
| 2026-04-26 23:16 | -31.79027 | -70.85204 | 34589 ft | 460 kts | 178° |
| 2026-04-26 23:16 | -31.82268 | -70.85091 | 33358 ft | 469 kts | 178° |
| 2026-04-26 23:16 | -31.85515 | -70.84971 | 32123 ft | 464 kts | 178° |
| 2026-04-26 23:17 | -31.88715 | -70.84848 | 30936 ft | 457 kts | 178° |
| 2026-04-26 23:17 | -31.91882 | -70.84729 | 30279 ft | 452 kts | 178° |
| 2026-04-26 23:17 | -31.95012 | -70.84616 | 29552 ft | 448 kts | 178° |
| 2026-04-26 23:17 | -31.98088 | -70.84509 | 28828 ft | 445 kts | 178° |
| 2026-04-26 23:18 | -32.01177 | -70.84401 | 28109 ft | 443 kts | 178° |
| 2026-04-26 23:18 | -32.04248 | -70.84292 | 27395 ft | 440 kts | 178° |
| 2026-04-26 23:18 | -32.07297 | -70.84181 | 26706 ft | 436 kts | 178° |
| 2026-04-26 23:18 | -32.10292 | -70.84068 | 26283 ft | 426 kts | 178° |
| 2026-04-26 23:19 | -32.13214 | -70.83961 | 25336 ft | 417 kts | 178° |
| 2026-04-26 23:19 | -32.16081 | -70.83858 | 24660 ft | 406 kts | 178° |
| 2026-04-26 23:19 | -32.18879 | -70.83759 | 24041 ft | 400 kts | 178° |
| 2026-04-26 23:19 | -32.21646 | -70.83662 | 23449 ft | 396 kts | 178° |
| 2026-04-26 23:20 | -32.24397 | -70.83565 | 22864 ft | 393 kts | 178° |
| 2026-04-26 23:20 | -32.27121 | -70.83467 | 22310 ft | 389 kts | 178° |
| 2026-04-26 23:20 | -32.29812 | -70.83371 | 21770 ft | 386 kts | 178° |
| 2026-04-26 23:20 | -32.32480 | -70.83277 | 21244 ft | 382 kts | 178° |
| 2026-04-26 23:21 | -32.35094 | -70.83183 | 20706 ft | 379 kts | 178° |
| 2026-04-26 23:21 | -32.37722 | -70.83088 | 20169 ft | 376 kts | 178° |
| 2026-04-26 23:21 | -32.40327 | -70.82991 | 19609 ft | 374 kts | 178° |
| 2026-04-26 23:21 | -32.42928 | -70.82894 | 19046 ft | 372 kts | 178° |
| 2026-04-26 23:22 | -32.45512 | -70.82800 | 18475 ft | 371 kts | 178° |
| 2026-04-26 23:22 | -32.48093 | -70.82707 | 17896 ft | 370 kts | 178° |
| 2026-04-26 23:22 | -32.50669 | -70.82616 | 17312 ft | 370 kts | 179° |
| 2026-04-26 23:22 | -32.53235 | -70.82527 | 16753 ft | 368 kts | 178° |
| 2026-04-26 23:23 | -32.55775 | -70.82434 | 16268 ft | 363 kts | 178° |
| 2026-04-26 23:23 | -32.58268 | -70.82342 | 15610 ft | 351 kts | 178° |
| 2026-04-26 23:23 | -32.60665 | -70.82252 | 15106 ft | 341 kts | 178° |
| 2026-04-26 23:23 | -32.62961 | -70.82169 | 14956 ft | 318 kts | 179° |
| 2026-04-26 23:24 | -32.65107 | -70.82092 | 14704 ft | 301 kts | 179° |
| 2026-04-26 23:24 | -32.67144 | -70.82020 | 14365 ft | 292 kts | 179° |
| 2026-04-26 23:24 | -32.69170 | -70.81949 | 14118 ft | 290 kts | 179° |
| 2026-04-26 23:24 | -32.71178 | -70.81878 | 13866 ft | 287 kts | 179° |
| 2026-04-26 23:25 | -32.73168 | -70.81805 | 13616 ft | 285 kts | 179° |
| 2026-04-26 23:25 | -32.75146 | -70.81732 | 13365 ft | 283 kts | 179° |
| 2026-04-26 23:25 | -32.77110 | -70.81658 | 13114 ft | 282 kts | 178° |
| 2026-04-26 23:25 | -32.79063 | -70.81580 | 12864 ft | 280 kts | 178° |
| 2026-04-26 23:26 | -32.81011 | -70.81505 | 12616 ft | 280 kts | 179° |
| 2026-04-26 23:26 | -32.82959 | -70.81434 | 12362 ft | 279 kts | 179° |
| 2026-04-26 23:26 | -32.84898 | -70.81362 | 12113 ft | 277 kts | 179° |
| 2026-04-26 23:26 | -32.86814 | -70.81290 | 11858 ft | 272 kts | 178° |
| 2026-04-26 23:27 | -32.88655 | -70.81220 | 11605 ft | 258 kts | 179° |
| 2026-04-26 23:27 | -32.90410 | -70.81155 | 11351 ft | 246 kts | 179° |
| 2026-04-26 23:27 | -32.92080 | -70.81108 | 11109 ft | 235 kts | 183° |
| 2026-04-26 23:27 | -32.93136 | -70.81329 | 10935 ft | 232 kts | 201° |
| 2026-04-26 23:28 | -32.94798 | -70.82818 | 10622 ft | 226 kts | 238° |
| 2026-04-26 23:28 | -32.95339 | -70.84531 | 10539 ft | 222 kts | 265° |
| 2026-04-26 23:28 | -32.95165 | -70.86353 | 10542 ft | 224 kts | 291° |
| 2026-04-26 23:28 | -32.94308 | -70.87886 | 10540 ft | 225 kts | 319° |
| 2026-04-26 23:29 | -32.92952 | -70.88787 | 10541 ft | 226 kts | 346° |
| 2026-04-26 23:29 | -32.91394 | -70.89015 | 10545 ft | 226 kts | 356° |
| 2026-04-26 23:29 | -32.89818 | -70.89121 | 10545 ft | 230 kts | 357° |
| 2026-04-26 23:29 | -32.88189 | -70.89211 | 10544 ft | 240 kts | 357° |
| 2026-04-26 23:30 | -32.86492 | -70.89305 | 10542 ft | 246 kts | 357° |
| 2026-04-26 23:30 | -32.84803 | -70.89277 | 10536 ft | 247 kts | 12° |
| 2026-04-26 23:30 | -32.83281 | -70.88384 | 10541 ft | 248 kts | 43° |
| 2026-04-26 23:30 | -32.82332 | -70.86696 | 10543 ft | 248 kts | 73° |
| 2026-04-26 23:31 | -32.82223 | -70.84665 | 10542 ft | 249 kts | 103° |
| 2026-04-26 23:31 | -32.82986 | -70.82844 | 10543 ft | 249 kts | 133° |
| 2026-04-26 23:31 | -32.84410 | -70.81722 | 10541 ft | 248 kts | 163° |
| 2026-04-26 23:31 | -32.86113 | -70.81460 | 10546 ft | 248 kts | 178° |
| 2026-04-26 23:32 | -32.87844 | -70.81366 | 10499 ft | 250 kts | 181° |
| 2026-04-26 23:32 | -32.89575 | -70.81438 | 10235 ft | 244 kts | 184° |
| 2026-04-26 23:32 | -32.91248 | -70.81569 | 9987 ft | 239 kts | 185° |
| 2026-04-26 23:32 | -32.92885 | -70.81715 | 9817 ft | 232 kts | 185° |
| 2026-04-26 23:33 | -32.94467 | -70.81861 | 9691 ft | 225 kts | 185° |
| 2026-04-26 23:33 | -32.96030 | -70.82003 | 9412 ft | 226 kts | 185° |
| 2026-04-26 23:33 | -32.97604 | -70.82139 | 9052 ft | 228 kts | 185° |
| 2026-04-26 23:33 | -32.99179 | -70.82275 | 8669 ft | 231 kts | 185° |
| 2026-04-26 23:34 | -33.00800 | -70.82366 | 8264 ft | 235 kts | 179° |
| 2026-04-26 23:34 | -33.02445 | -70.82281 | 7844 ft | 238 kts | 178° |
| 2026-04-26 23:34 | -33.04112 | -70.82192 | 7419 ft | 241 kts | 178° |
| 2026-04-26 23:34 | -33.05793 | -70.82103 | 6976 ft | 241 kts | 178° |
| 2026-04-26 23:35 | -33.07443 | -70.82010 | 6546 ft | 234 kts | 178° |
| 2026-04-26 23:35 | -33.09050 | -70.81917 | 6104 ft | 229 kts | 178° |
| 2026-04-26 23:35 | -33.10623 | -70.81826 | 5672 ft | 224 kts | 178° |
| 2026-04-26 23:35 | -33.12133 | -70.81739 | 5548 ft | 209 kts | 178° |
| 2026-04-26 23:36 | -33.13578 | -70.81655 | 5498 ft | 204 kts | 178° |
| 2026-04-26 23:36 | -33.14970 | -70.81575 | 5419 ft | 198 kts | 178° |
| 2026-04-26 23:36 | -33.16344 | -70.81496 | 5345 ft | 197 kts | 178° |
| 2026-04-26 23:36 | -33.17697 | -70.81417 | 5262 ft | 193 kts | 178° |
| 2026-04-26 23:37 | -33.19035 | -70.81344 | 5067 ft | 192 kts | 178° |
| 2026-04-26 23:37 | -33.20351 | -70.81273 | 4843 ft | 187 kts | 178° |
| 2026-04-26 23:37 | -33.21640 | -70.81204 | 4586 ft | 183 kts | 178° |
| 2026-04-26 23:37 | -33.22899 | -70.81137 | 4343 ft | 180 kts | 178° |
| 2026-04-26 23:38 | -33.24134 | -70.81071 | 4102 ft | 175 kts | 178° |
| 2026-04-26 23:38 | -33.25321 | -70.81007 | 3875 ft | 165 kts | 178° |
| 2026-04-26 23:38 | -33.26417 | -70.80948 | 3693 ft | 150 kts | 178° |
| 2026-04-26 23:38 | -33.27413 | -70.80895 | 3481 ft | 138 kts | 178° |
| 2026-04-26 23:39 | -33.28351 | -70.80845 | 3300 ft | 132 kts | 178° |
| 2026-04-26 23:39 | -33.29266 | -70.80796 | 3126 ft | 130 kts | 178° |
| 2026-04-26 23:39 | -33.30170 | -70.80748 | 2950 ft | 129 kts | 178° |
| 2026-04-26 23:39 | -33.31056 | -70.80701 | 2783 ft | 129 kts | 178° |
| 2026-04-26 23:40 | -33.31951 | -70.80653 | 2614 ft | 128 kts | 178° |
| 2026-04-26 23:40 | -33.32844 | -70.80605 | 2447 ft | 128 kts | 178° |
| 2026-04-26 23:40 | -33.33733 | -70.80557 | 2274 ft | 128 kts | 178° |
| 2026-04-26 23:40 | -33.34621 | -70.80510 | 2104 ft | 127 kts | 178° |
| 2026-04-26 23:41 | -33.35506 | -70.80462 | 1934 ft | 127 kts | 178° |
| 2026-04-26 23:41 | -33.36390 | -70.80415 | 1768 ft | 127 kts | 178° |
| 2026-04-26 23:41 | -33.37270 | -70.80369 | 1615 ft | 126 kts | 178° |
| 2026-04-26 23:41 | -33.38111 | -70.80326 | 1571 ft | 108 kts | 176° |
| 2026-04-26 23:42 | -33.38688 | -70.80294 | 1575 ft | 56 kts | 177° |
| 2026-04-26 23:42 | -33.39191 | -70.80260 | 1573 ft | 19 kts | 169° |
| 2026-04-26 23:42 | -33.39319 | -70.80204 | 1572 ft | 17 kts | 154° |
| 2026-04-26 23:43 | -33.39408 | -70.80141 | 1569 ft | 11 kts | 147° |
| 2026-04-26 23:43 | -33.39457 | -70.80104 | 1567 ft | 0 kts | 147° |
| 2026-04-26 23:44 | -33.39463 | -70.80099 | 1567 ft | 3 kts | 147° |
| 2026-04-26 23:44 | -33.39491 | -70.80073 | 1566 ft | 3 kts | 137° |
| 2026-04-26 23:44 | -33.39504 | -70.80057 | 1566 ft | 4 kts | 133° |
| 2026-04-26 23:44 | -33.39525 | -70.80013 | 1566 ft | 6 kts | 110° |
| 2026-04-26 23:45 | -33.39530 | -70.79969 | 1565 ft | 2 kts | 94° |
| 2026-04-26 23:45 | -33.39531 | -70.79941 | 1565 ft | 5 kts | 89° |
| 2026-04-26 23:45 | -33.39529 | -70.79894 | 1565 ft | 5 kts | 86° |
| 2026-04-26 23:45 | -33.39528 | -70.79885 | 1565 ft | 0 kts | 86° |
| 2026-04-26 23:46 | -33.39528 | -70.79871 | 1565 ft | 6 kts | 87° |
| 2026-04-26 23:46 | -33.39527 | -70.79842 | 1565 ft | 3 kts | 89° |
| 2026-04-26 23:46 | -33.39539 | -70.79811 | 1565 ft | 0 kts | 139° |
| 2026-04-26 23:46 | -33.39546 | -70.79808 | 1565 ft | 4 kts | 160° |
| 2026-04-26 23:47 | -33.39563 | -70.79807 | 1565 ft | 2 kts | 179° |
| 2026-04-26 23:47 | -33.39577 | -70.79806 | 1565 ft | 2 kts | 178° |
| 2026-04-26 23:47 | -33.39591 | -70.79806 | 1565 ft | 2 kts | 178° |
| 2026-04-26 23:47 | -33.39605 | -70.79805 | 1565 ft | 2 kts | 178° |
| 2026-04-26 23:48 | -33.39611 | -70.79805 | 1565 ft | 0 kts | 177° |